Time;durP1;ratioP1;P1;durP2;ratioP2;P2;SDS_P1;SDS_P2;PMS_P1;PMS_P2;Temp;Humidity;BMP_temperature;BMP_pressure;BME280_temperature;BME280_humidity;BME280_pressure;Samples;Min_cycle;Max_cycle;Signal;HPM_P1;HPM_P2
2022/11/13 00:00:45;;;;;;;20.73;12.85;;;4.00;99.90;;;3.13;100.00;98252.41;4956063;28;20111;-42
2022/11/13 00:03:10;;;;;;;20.90;13.68;;;3.90;99.90;;;2.94;100.00;98213.16;4956976;28;20034;-42
2022/11/13 00:05:36;;;;;;;22.27;13.30;;;3.90;99.90;;;3.09;100.00;98243.69;4960134;28;20089;-42
2022/11/13 00:08:02;;;;;;;20.08;13.63;;;3.90;99.90;;;2.92;100.00;98217.50;4958962;28;20034;-42
2022/11/13 00:10:27;;;;;;;19.52;13.13;;;3.90;99.90;;;3.06;100.00;98243.66;4956713;28;20484;-42
2022/11/13 00:12:53;;;;;;;21.67;13.30;;;3.90;99.90;;;3.05;100.00;98239.28;4958962;28;20031;-42
2022/11/13 00:15:19;;;;;;;23.15;13.52;;;3.90;99.90;;;3.03;100.00;98234.09;4954999;28;20273;-45
2022/11/13 00:17:45;;;;;;;21.65;13.70;;;3.90;99.90;;;3.02;100.00;98229.72;4956073;28;20321;-42
2022/11/13 00:20:10;;;;;;;19.00;12.98;;;3.90;99.90;;;3.02;100.00;98221.06;4961215;28;20086;-41
2022/11/13 00:22:36;;;;;;;23.73;14.00;;;3.80;99.90;;;3.00;100.00;98222.78;4953562;28;20105;-42
2022/11/13 00:25:02;;;;;;;20.70;13.75;;;3.80;99.90;;;2.96;100.00;98218.38;4956279;28;20031;-42
2022/11/13 00:27:30;;;;;;;22.40;13.20;;;3.80;99.90;;;2.95;100.00;98227.09;4956088;28;20123;-42
2022/11/13 00:29:56;;;;;;;21.63;12.98;;;3.80;99.90;;;2.93;100.00;98226.22;4956836;28;20045;-45
2022/11/13 00:32:22;;;;;;;22.75;13.77;;;3.70;99.90;;;2.80;100.00;98205.28;4958310;28;20623;-44
2022/11/13 00:34:47;;;;;;;20.33;12.40;;;3.70;99.90;;;2.87;100.00;98221.81;4956513;28;20129;-42
2022/11/13 00:37:13;;;;;;;18.63;12.25;;;3.70;99.90;;;2.83;100.00;98217.44;4957079;28;20097;-44
2022/11/13 00:39:39;;;;;;;19.95;12.75;;;3.60;99.90;;;2.81;100.00;98221.78;4948682;28;20937;-42
2022/11/13 00:42:04;;;;;;;18.33;12.40;;;3.60;99.90;;;2.79;100.00;98213.09;4935951;28;20037;-42
2022/11/13 00:44:30;;;;;;;20.40;11.52;;;3.60;99.90;;;2.75;100.00;98214.78;4951099;28;20066;-42
2022/11/13 00:46:56;;;;;;;20.45;12.70;;;3.50;99.90;;;2.75;100.00;98208.72;4946156;28;20066;-43
2022/11/13 00:49:22;;;;;;;16.10;11.38;;;3.50;99.90;;;2.70;100.00;98203.47;4961395;28;20046;-44
2022/11/13 00:51:47;;;;;;;19.88;11.80;;;3.50;99.90;;;2.67;100.00;98198.22;4954840;28;20121;-43
2022/11/13 00:54:13;;;;;;;18.00;10.95;;;3.50;99.90;;;2.64;100.00;98195.63;4956381;28;20058;-43
2022/11/13 00:56:39;;;;;;;16.05;10.75;;;3.50;99.90;;;2.59;100.00;98190.38;4952451;28;20424;-44
2022/11/13 00:59:04;;;;;;;17.77;11.27;;;3.40;99.90;;;2.57;100.00;98192.09;4957422;28;20068;-42
2022/11/13 01:01:30;;;;;;;16.95;10.75;;;3.40;99.90;;;2.51;100.00;98179.00;4958443;28;20038;-42
2022/11/13 01:03:56;;;;;;;17.25;10.68;;;3.40;99.90;;;2.54;100.00;98178.16;4957350;28;20534;-42
2022/11/13 01:06:25;;;;;;;14.43;9.90;;;3.30;99.90;;;2.53;100.00;98184.22;4961601;28;20177;-42
2022/11/13 01:08:55;;;;;;;16.92;11.15;;;3.30;99.90;;;2.50;100.00;98177.28;4956649;28;20055;-42
2022/11/13 01:11:25;;;;;;;17.45;11.15;;;3.30;99.90;;;2.50;100.00;98179.03;4959994;28;20189;-42
2022/11/13 01:13:52;;;;;;;20.45;12.60;;;3.30;99.90;;;2.47;100.00;98180.72;4955328;28;20503;-43
2022/11/13 01:16:21;;;;;;;16.17;11.85;;;3.30;99.90;;;2.49;100.00;98183.34;4956855;28;20034;-45
2022/11/13 01:18:47;;;;;;;18.27;11.32;;;3.30;99.90;;;2.46;100.00;98176.38;4956941;28;20027;-42
2022/11/13 01:21:18;;;;;;;21.13;11.95;;;3.30;99.90;;;2.44;100.00;98174.59;4964333;28;20459;-42
2022/11/13 01:23:44;;;;;;;21.80;12.65;;;3.30;99.90;;;2.44;100.00;98178.09;4952850;28;20034;-42
2022/11/13 01:26:15;;;;;;;17.45;12.10;;;3.30;99.90;;;2.41;100.00;98175.47;4954863;28;20122;-42
2022/11/13 01:28:43;;;;;;;18.05;11.68;;;3.20;99.90;;;2.38;100.00;98171.97;4958572;28;20027;-43
2022/11/13 01:31:15;;;;;;;21.30;12.68;;;3.20;99.90;;;2.35;100.00;98171.94;4957832;28;20122;-43
2022/11/13 01:33:41;;;;;;;17.25;11.38;;;3.20;99.90;;;2.32;100.00;98159.78;4953261;28;20038;-42
2022/11/13 01:36:15;;;;;;;19.60;12.02;;;3.20;99.90;;;2.27;100.00;98157.13;4959940;28;20245;-41
2022/11/13 01:38:41;;;;;;;20.17;11.50;;;3.20;99.90;;;2.24;100.00;98164.03;4955184;28;20042;-42
2022/11/13 01:41:14;;;;;;;16.75;11.35;;;3.10;99.90;;;2.22;100.00;98147.53;4960849;28;20030;-43
2022/11/13 01:43:40;;;;;;;18.13;11.73;;;3.10;99.90;;;2.18;100.00;98145.78;4956534;28;20039;-42
2022/11/13 01:46:15;;;;;;;17.45;11.13;;;3.10;99.90;;;2.18;100.00;98148.38;4949509;28;20499;-41
2022/11/13 01:49:04;;;;;;;19.48;11.43;;;3.00;99.90;;;2.15;100.00;98148.34;4959095;28;20030;-42
2022/11/13 01:51:35;;;;;;;17.20;11.60;;;3.00;99.90;;;2.08;100.00;98137.91;4936132;28;20112;-43
2022/11/13 01:54:06;;;;;;;17.73;12.75;;;3.00;99.90;;;2.05;100.00;98145.69;4949558;28;20316;-42
2022/11/13 01:56:32;;;;;;;20.40;12.63;;;2.90;99.90;;;2.03;100.00;98136.13;4953432;28;20057;-42
2022/11/13 01:59:09;;;;;;;19.70;12.15;;;2.90;99.90;;;2.00;100.00;98129.16;4951254;28;20093;-42
2022/11/13 02:01:35;;;;;;;18.08;11.93;;;2.90;99.90;;;1.98;100.00;98130.88;4954539;28;20575;-42
2022/11/13 02:04:00;;;;;;;21.00;12.57;;;2.90;99.90;;;1.97;100.00;98129.09;4953111;28;20081;-42
2022/11/13 02:06:32;;;;;;;16.38;11.65;;;2.80;99.90;;;1.93;100.00;98129.94;4956135;28;20097;-42
2022/11/13 02:08:58;;;;;;;19.83;11.23;;;2.80;99.90;;;1.91;100.00;98126.47;4957591;28;20453;-42
2022/11/13 02:11:24;;;;;;;16.65;10.90;;;2.80;99.90;;;1.66;100.00;98087.22;4958231;28;20078;-41
2022/11/13 02:13:50;;;;;;;17.63;11.23;;;2.80;99.90;;;1.84;100.00;98122.06;4956398;28;20721;-42
2022/11/13 02:16:18;;;;;;;16.67;11.20;;;2.70;99.90;;;1.81;100.00;98119.44;4959409;28;20038;-43
2022/11/13 02:18:44;;;;;;;17.15;11.18;;;2.70;99.90;;;1.79;100.00;98119.41;4960701;28;20125;-42
2022/11/13 02:21:26;;;;;;;17.77;11.95;;;2.60;99.90;;;1.77;100.00;98113.31;4957283;28;20049;-42
2022/11/13 02:24:18;;;;;;;14.82;11.38;;;2.60;99.90;;;1.72;100.00;98109.81;4972189;28;20511;-42
2022/11/13 02:26:44;;;;;;;17.23;11.38;;;2.60;99.90;;;1.74;100.00;98107.22;4954814;28;20046;-43
2022/11/13 02:29:09;;;;;;;19.58;11.43;;;2.60;99.90;;;1.71;100.00;98097.69;4962595;28;20030;-43
2022/11/13 02:31:35;;;;;;;18.70;12.38;;;2.60;99.90;;;1.70;100.00;98098.53;4953212;28;20031;-42
2022/11/13 02:34:02;;;;;;;17.98;11.93;;;2.50;99.90;;;1.69;100.00;98079.47;4954145;28;20244;-41
2022/11/13 02:36:29;;;;;;;20.25;11.45;;;2.60;99.90;;;1.70;100.00;98080.31;4958207;28;20046;-42
2022/11/13 02:38:58;;;;;;;18.90;11.65;;;2.60;99.90;;;1.69;100.00;98081.19;4953158;28;20101;-42
2022/11/13 02:41:24;;;;;;;18.90;12.30;;;2.50;99.90;;;1.68;100.00;98080.31;4953160;28;20271;-42
2022/11/13 02:43:49;;;;;;;21.20;12.45;;;2.50;99.90;;;1.67;100.00;98093.28;4957954;28;20215;-43
2022/11/13 02:46:15;;;;;;;18.15;11.23;;;2.50;99.90;;;1.67;100.00;98085.47;4951339;28;20508;-41
2022/11/13 02:48:41;;;;;;;18.60;12.43;;;2.50;99.90;;;1.64;100.00;98094.13;4956592;28;20054;-42
2022/11/13 02:51:06;;;;;;;17.85;11.52;;;2.50;99.90;;;1.58;100.00;98082.81;4961937;28;20246;-41
2022/11/13 02:53:32;;;;;;;18.52;12.10;;;2.50;99.90;;;1.61;100.00;98083.69;4948943;28;21665;-42
2022/11/13 02:55:58;;;;;;;21.42;12.43;;;2.50;99.90;;;1.57;100.00;98074.13;4965386;28;20509;-42
2022/11/13 02:58:24;;;;;;;20.27;13.00;;;2.50;99.90;;;1.57;100.00;98081.94;4956587;28;20045;-42
2022/11/13 03:00:50;;;;;;;18.23;12.27;;;2.50;99.90;;;1.55;100.00;98075.00;4951749;28;20120;-42
2022/11/13 03:03:16;;;;;;;18.25;11.75;;;2.40;99.90;;;1.49;100.00;98073.19;4961003;28;20377;-43
2022/11/13 03:05:41;;;;;;;19.77;12.07;;;2.40;99.90;;;1.49;100.00;98076.66;4953550;28;20046;-42
2022/11/13 03:08:07;;;;;;;17.42;12.07;;;2.40;99.90;;;1.43;100.00;98073.13;4956977;28;20042;-42
2022/11/13 03:10:33;;;;;;;18.77;10.73;;;2.30;99.90;;;1.28;100.00;98048.72;4951108;28;20039;-42
2022/11/13 03:12:58;;;;;;;17.58;11.07;;;2.30;99.90;;;1.38;100.00;98059.22;4959496;28;20073;-41
2022/11/13 03:15:24;;;;;;;17.33;11.43;;;2.30;99.90;;;1.17;100.00;98036.47;4949687;28;20055;-42
2022/11/13 03:17:50;;;;;;;17.02;11.27;;;2.30;99.90;;;1.31;100.00;98066.97;4955371;28;20151;-42
2022/11/13 03:20:16;;;;;;;16.58;10.68;;;2.20;99.90;;;1.26;100.00;98063.44;4961253;28;20265;-42
2022/11/13 03:22:41;;;;;;;19.50;11.82;;;2.20;99.90;;;1.24;100.00;98064.25;4959155;28;20031;-46
2022/11/13 03:25:08;;;;;;;20.05;11.27;;;2.20;99.90;;;1.14;100.00;98063.31;4957446;28;20034;-43
2022/11/13 03:27:33;;;;;;;17.27;10.85;;;2.10;99.90;;;1.12;100.00;98070.22;4958259;28;20521;-42
2022/11/13 03:29:59;;;;;;;17.27;11.30;;;2.10;99.90;;;1.10;100.00;98066.72;4959776;28;20035;-41
2022/11/13 03:32:25;;;;;;;18.67;11.23;;;2.10;99.90;;;1.08;100.00;98064.09;4984925;23;20109;-58
2022/11/13 03:34:50;;;;;;;14.90;10.02;;;2.10;99.90;;;1.09;100.00;98059.78;4969818;28;20066;-58
2022/11/13 03:37:16;;;;;;;16.27;9.98;;;2.00;99.90;;;1.05;100.00;98071.84;4968390;28;20030;-58
2022/11/13 03:39:42;;;;;;;13.85;9.10;;;2.00;99.90;;;1.04;100.00;98061.44;4967483;28;20053;-58
2022/11/13 03:42:07;;;;;;;12.63;8.75;;;2.00;99.90;;;0.98;100.00;98058.78;4958250;28;20396;-59
2022/11/13 03:44:33;;;;;;;17.85;9.18;;;1.90;99.90;;;0.95;100.00;98073.50;4956230;28;20271;-58
2022/11/13 03:46:59;;;;;;;12.02;8.25;;;1.90;99.90;;;0.97;100.00;98068.31;4955523;28;20584;-58
2022/11/13 03:49:25;;;;;;;11.00;7.93;;;1.90;99.90;;;1.04;100.00;98061.44;4952873;28;20325;-59
2022/11/13 03:51:50;;;;;;;16.17;9.82;;;2.00;99.90;;;1.04;100.00;98059.75;4952835;28;20448;-58
2022/11/13 03:54:16;;;;;;;14.05;8.63;;;2.00;99.90;;;1.10;100.00;98064.13;4955181;28;20035;-58
2022/11/13 03:56:42;;;;;;;14.05;8.70;;;2.10;99.90;;;1.16;100.00;98060.72;4952590;28;20039;-58
2022/11/13 03:59:07;;;;;;;13.57;9.07;;;2.10;99.90;;;1.21;100.00;98061.66;4958126;28;20039;-58
2022/11/13 04:01:33;;;;;;;12.05;8.25;;;2.20;99.90;;;1.22;100.00;98063.38;4956221;28;20042;-58
2022/11/13 04:03:59;;;;;;;15.60;8.23;;;2.20;99.90;;;1.26;100.00;98060.84;4954571;28;20037;-58
2022/11/13 04:06:25;;;;;;;12.25;8.05;;;2.20;99.90;;;1.29;100.00;98055.69;4956583;28;20035;-58
2022/11/13 04:08:50;;;;;;;10.85;7.38;;;2.30;99.90;;;1.36;100.00;98060.94;4954559;28;20484;-58
2022/11/13 04:11:16;;;;;;;10.88;7.07;;;2.30;99.90;;;1.42;100.00;98053.19;4951457;28;20204;-58
2022/11/13 04:13:42;;;;;;;10.07;7.43;;;2.40;99.90;;;1.48;100.00;98053.25;4949516;28;20270;-58
2022/11/13 04:16:08;;;;;;;13.95;8.55;;;2.40;99.90;;;1.44;100.00;98039.34;4945749;28;20030;-58
2022/11/13 04:18:33;;;;;;;11.65;9.02;;;2.40;99.90;;;1.37;100.00;98042.75;4944729;28;20066;-58
2022/11/13 04:21:01;;;;;;;12.35;7.70;;;2.40;99.90;;;1.32;100.00;98042.69;4951739;28;20031;-59
2022/11/13 04:23:27;;;;;;;11.13;7.70;;;2.30;99.90;;;1.32;100.00;98041.84;4953192;28;20058;-58
2022/11/13 04:25:53;;;;;;;11.15;7.93;;;2.30;99.90;;;1.21;100.00;98039.13;4952521;28;20230;-58
2022/11/13 04:28:19;;;;;;;15.13;8.70;;;2.20;99.90;;;1.18;100.00;98036.47;4949673;28;20035;-58
2022/11/13 04:30:45;;;;;;;11.68;8.23;;;2.20;99.90;;;1.12;100.00;98029.50;4951038;28;20026;-58
2022/11/13 04:33:11;;;;;;;12.20;8.18;;;2.10;99.90;;;1.03;100.00;98032.00;4949154;28;20269;-58
2022/11/13 04:35:36;;;;;;;13.43;8.68;;;2.00;99.90;;;0.98;100.00;98019.81;4966073;28;20120;-58
2022/11/13 04:38:02;;;;;;;13.35;8.02;;;2.00;99.90;;;0.96;100.00;98025.00;4956490;28;20035;-58
2022/11/13 04:40:28;;;;;;;11.50;8.40;;;1.90;99.90;;;0.89;100.00;98021.44;4954512;28;20035;-58
2022/11/13 04:42:53;;;;;;;12.07;8.10;;;1.90;99.90;;;0.86;100.00;98017.94;4951162;28;20116;-58
2022/11/13 04:45:26;;;;;;;13.43;8.23;;;1.80;99.90;;;0.81;100.00;98020.50;4952731;28;20051;-58
2022/11/13 04:47:52;;;;;;;12.90;8.07;;;1.80;99.90;;;0.74;100.00;98010.91;4947028;28;20042;-58
2022/11/13 04:50:19;;;;;;;11.45;7.95;;;1.70;99.90;;;0.66;100.00;98007.34;4953592;28;20113;-58
2022/11/13 04:52:44;;;;;;;11.82;7.60;;;1.70;99.90;;;0.62;100.00;98018.53;4952399;28;20118;-58
2022/11/13 04:55:11;;;;;;;11.35;7.68;;;1.60;99.90;;;0.50;100.00;98012.34;4957067;28;20039;-58
2022/11/13 04:57:37;;;;;;;12.05;7.72;;;1.50;99.90;;;0.36;100.00;97990.53;4957285;28;20037;-58
2022/11/13 05:00:05;;;;;;;11.95;7.88;;;1.50;99.90;;;0.42;100.00;98011.38;4956853;28;20409;-58
2022/11/13 05:02:31;;;;;;;12.88;7.40;;;1.40;99.90;;;0.37;100.00;98008.69;4943670;28;20045;-58
2022/11/13 05:04:57;;;;;;;12.18;7.85;;;1.40;99.90;;;0.31;100.00;98002.59;4952732;28;20039;-58
2022/11/13 05:07:25;;;;;;;10.82;6.93;;;1.30;99.90;;;0.22;100.00;98000.72;4955155;28;20124;-58
2022/11/13 05:09:51;;;;;;;9.48;6.95;;;1.30;99.90;;;0.19;100.00;98000.69;4957796;28;20038;-58
2022/11/13 05:12:17;;;;;;;9.73;7.07;;;1.20;99.90;;;0.16;100.00;97996.34;4953596;28;20600;-58
2022/11/13 05:14:43;;;;;;;9.55;7.07;;;1.20;99.90;;;0.15;100.00;97991.13;4951727;28;20103;-59
2022/11/13 05:17:10;;;;;;;10.95;7.05;;;1.10;99.90;;;0.08;100.00;97990.16;4948497;28;20031;-58
2022/11/13 05:19:37;;;;;;;9.02;7.07;;;1.10;99.90;;;-0.05;100.00;97976.16;4955437;28;20542;-58
2022/11/13 05:22:03;;;;;;;11.80;6.50;;;1.10;99.90;;;0.04;100.00;97988.38;4956780;28;20038;-58
2022/11/13 05:24:29;;;;;;;10.18;6.72;;;1.00;99.90;;;0.01;100.00;97979.69;4958755;28;20031;-58
2022/11/13 05:26:55;;;;;;;10.88;7.05;;;1.00;99.90;;;-0.03;100.00;97989.16;4949948;28;20050;-59
2022/11/13 05:29:21;;;;;;;8.65;6.63;;;0.90;99.90;;;-0.06;100.00;97981.31;4952718;28;20035;-58
2022/11/13 05:31:47;;;;;;;10.43;7.13;;;0.90;99.90;;;-0.12;100.00;97976.91;4952841;28;20114;-58
2022/11/13 05:34:13;;;;;;;10.07;6.78;;;0.90;99.90;;;-0.12;100.00;97983.81;4956729;28;20034;-58
2022/11/13 05:36:39;;;;;;;9.32;6.72;;;0.80;99.90;;;-0.15;100.00;97984.63;4960284;28;20412;-58
2022/11/13 05:39:05;;;;;;;10.85;7.22;;;0.80;99.90;;;-0.21;100.00;97980.22;4956387;28;20027;-58
2022/11/13 05:41:32;;;;;;;12.05;7.72;;;0.90;99.90;;;-0.30;100.00;97974.91;4956424;28;20046;-58
2022/11/13 05:43:58;;;;;;;13.50;8.70;;;0.80;99.90;;;-0.27;100.00;97985.34;4952796;28;20404;-58
2022/11/13 05:46:27;;;;;;;14.10;8.75;;;0.80;99.90;;;-0.33;100.00;97974.00;4946875;28;20035;-58
2022/11/13 05:48:56;;;;;;;12.70;8.48;;;0.80;99.90;;;-0.37;100.00;97977.41;4953694;28;20077;-59
2022/11/13 05:51:33;;;;;;;12.65;8.38;;;0.80;99.90;;;-0.39;100.00;97974.78;4958936;28;20034;-58
2022/11/13 05:53:59;;;;;;;10.68;7.68;;;0.70;99.90;;;-0.36;100.00;97968.75;4951856;28;20085;-59
2022/11/13 05:56:32;;;;;;;11.88;7.78;;;0.70;99.90;;;-0.37;100.00;97969.63;4955350;28;20113;-59
2022/11/13 05:58:59;;;;;;;9.25;7.25;;;0.70;99.90;;;-0.39;100.00;97980.81;4952638;28;20038;-58
2022/11/13 06:01:35;;;;;;;11.70;7.88;;;0.70;99.90;;;-0.36;100.00;97972.22;4947637;28;20034;-58
2022/11/13 06:04:03;;;;;;;10.90;7.03;;;0.70;99.90;;;-0.28;100.00;97978.41;4943540;28;20037;-58
2022/11/13 06:06:30;;;;;;;11.18;7.32;;;0.70;99.90;;;-0.26;100.00;97973.25;4951112;28;20488;-58
2022/11/13 06:08:58;;;;;;;11.52;8.30;;;0.80;99.90;;;-0.25;100.00;97978.47;4956141;28;20038;-58
2022/11/13 06:11:28;;;;;;;9.05;6.75;;;0.80;99.90;;;-0.27;100.00;97972.38;4950083;28;20686;-59
2022/11/13 06:13:55;;;;;;;10.07;6.95;;;0.80;99.90;;;-0.21;100.00;97967.28;4947091;28;20117;-58
2022/11/13 06:16:32;;;;;;;9.18;6.63;;;0.80;99.90;;;-0.13;100.00;97980.34;4945237;28;20651;-59
2022/11/13 06:19:01;;;;;;;8.77;6.22;;;0.90;99.90;;;-0.05;100.00;97972.69;4952627;28;20056;-58
2022/11/13 06:21:32;;;;;;;9.00;6.38;;;1.00;99.90;;;0.01;100.00;97974.50;4949520;28;20064;-58
2022/11/13 06:23:59;;;;;;;8.15;5.90;;;1.00;99.90;;;0.06;100.00;97975.44;4953216;28;20039;-59
2022/11/13 06:26:32;;;;;;;7.95;6.05;;;1.10;99.90;;;0.11;100.00;97973.78;4954538;28;20042;-59
2022/11/13 06:28:59;;;;;;;9.10;6.38;;;1.10;99.90;;;0.10;100.00;97972.88;4952023;28;20035;-59
2022/11/13 06:31:32;;;;;;;9.07;6.82;;;1.10;99.90;;;0.08;100.00;97969.41;4943592;28;20043;-59
2022/11/13 06:33:58;;;;;;;10.95;6.60;;;1.20;99.90;;;0.06;100.00;97960.75;4955010;28;20054;-59
2022/11/13 06:36:28;;;;;;;10.63;6.20;;;1.10;99.90;;;0.12;100.00;97959.94;4952199;28;20731;-59
2022/11/13 06:38:54;;;;;;;8.63;6.78;;;1.10;99.90;;;0.09;100.00;97959.91;4955397;28;20046;-58
2022/11/13 06:41:24;;;;;;;9.18;7.00;;;1.10;99.90;;;-0.05;100.00;97936.38;4951750;28;20086;-59
2022/11/13 06:43:50;;;;;;;8.88;6.55;;;1.10;99.90;;;0.09;100.00;97958.19;4944685;28;20039;-59
2022/11/13 06:46:19;;;;;;;9.57;7.55;;;1.20;99.90;;;0.08;100.00;97951.25;4952129;28;20050;-59
2022/11/13 06:48:45;;;;;;;10.70;6.90;;;1.10;99.90;;;0.12;100.00;97949.56;4948814;28;20038;-59
2022/11/13 06:51:16;;;;;;;10.98;7.30;;;1.20;99.90;;;0.17;100.00;97947.91;4941646;28;20031;-59
2022/11/13 06:53:42;;;;;;;12.70;7.82;;;1.20;99.90;;;0.19;100.00;97947.06;4937172;28;20517;-59
2022/11/13 06:56:08;;;;;;;18.83;8.00;;;1.20;99.90;;;0.15;100.00;97945.28;4945735;28;20081;-59
2022/11/13 06:58:34;;;;;;;10.00;7.30;;;1.20;99.90;;;0.19;100.00;97943.59;4946636;28;20070;-59
2022/11/13 07:01:09;;;;;;;10.73;8.40;;;1.20;99.90;;;0.21;100.00;97936.72;4949592;28;20045;-58
2022/11/13 07:03:35;;;;;;;11.13;8.00;;;1.20;99.90;;;0.26;100.00;97944.56;4944858;28;20552;-59
2022/11/13 07:06:05;;;;;;;10.77;7.25;;;1.30;99.90;;;0.27;100.00;97933.31;4949629;28;20489;-58
2022/11/13 07:08:31;;;;;;;9.35;7.22;;;1.30;99.90;;;0.24;100.00;97936.75;4948877;28;20035;-58
2022/11/13 07:10:58;;;;;;;9.73;7.28;;;1.30;99.90;;;0.17;100.00;97928.03;4935207;28;20031;-58
2022/11/13 07:13:25;;;;;;;10.77;7.35;;;1.20;99.90;;;0.17;100.00;97917.66;4947676;28;20027;-59
2022/11/13 07:15:51;;;;;;;8.05;6.20;;;1.20;99.90;;;0.17;100.00;97917.66;4948875;28;20027;-58
2022/11/13 07:18:17;;;;;;;7.57;6.07;;;1.20;99.90;;;0.21;100.00;97920.28;4954534;28;20034;-59
2022/11/13 07:20:43;;;;;;;9.73;6.70;;;1.20;99.90;;;0.25;100.00;97916.88;4956749;28;20145;-58
2022/11/13 07:23:08;;;;;;;7.78;5.90;;;1.30;99.90;;;0.28;100.00;97927.28;4951104;28;20500;-58
2022/11/13 07:25:34;;;;;;;8.80;6.55;;;1.30;99.90;;;0.28;100.00;97925.56;4951252;28;20046;-59
2022/11/13 07:28:00;;;;;;;9.40;6.45;;;1.30;99.90;;;0.29;100.00;97923.84;4955019;28;20062;-62
2022/11/13 07:30:26;;;;;;;16.60;7.22;;;1.30;99.90;;;0.32;100.00;97926.47;4950612;28;20027;-59
2022/11/13 07:32:52;;;;;;;9.38;6.97;;;1.40;99.90;;;0.36;100.00;97930.88;4950554;28;20042;-58
2022/11/13 07:35:18;;;;;;;10.05;7.72;;;1.30;99.90;;;0.37;100.00;97919.63;4955095;28;20035;-59
2022/11/13 07:37:44;;;;;;;39.97;9.07;;;1.40;99.90;;;0.36;100.00;97910.09;4954626;28;20042;-59
2022/11/13 07:40:11;;;;;;;16.15;8.77;;;1.40;99.90;;;0.38;100.00;97916.19;4954003;28;20042;-59
2022/11/13 07:42:37;;;;;;;11.82;7.90;;;1.50;99.90;;;0.52;100.00;97918.91;4952498;28;20035;-59
2022/11/13 07:45:04;;;;;;;33.13;9.88;;;1.50;99.90;;;0.60;100.00;97914.69;4951931;28;20032;-58
2022/11/13 07:47:29;;;;;;;18.25;8.52;;;1.60;99.90;;;0.55;100.00;97898.19;4946926;28;20066;-58
2022/11/13 07:49:55;;;;;;;8.85;7.18;;;1.70;99.90;;;0.70;100.00;97894.88;4950797;28;20186;-58
2022/11/13 07:52:21;;;;;;;9.85;6.97;;;1.70;99.90;;;0.82;100.00;97891.53;4945574;28;20034;-58
2022/11/13 07:54:46;;;;;;;27.20;7.15;;;1.80;99.90;;;0.90;100.00;97892.50;4942990;28;20768;-58
2022/11/13 07:57:13;;;;;;;8.65;6.68;;;1.90;99.90;;;1.00;100.00;97899.50;4952144;28;20098;-58
2022/11/13 07:59:38;;;;;;;22.23;7.97;;;1.90;99.90;;;1.00;100.00;97889.09;4949211;28;20074;-58
2022/11/13 08:02:05;;;;;;;10.98;7.30;;;2.00;99.90;;;0.96;100.00;97882.16;4948389;28;20615;-58
2022/11/13 08:04:30;;;;;;;38.10;8.10;;;2.00;99.90;;;1.01;100.00;97879.59;4952443;28;20381;-59
2022/11/13 08:06:56;;;;;;;8.93;6.55;;;2.00;99.90;;;1.14;100.00;97884.91;4955743;28;20049;-58
2022/11/13 08:09:22;;;;;;;10.30;6.13;;;2.10;99.90;;;1.24;100.00;97877.16;4957303;28;20034;-58
2022/11/13 08:11:47;;;;;;;13.25;8.02;;;2.20;99.90;;;1.31;100.00;97890.25;4954477;28;20039;-58
2022/11/13 08:14:13;;;;;;;8.95;6.68;;;2.30;99.90;;;1.38;100.00;97888.53;4956438;28;20031;-59
2022/11/13 08:16:39;;;;;;;27.35;8.63;;;2.30;99.90;;;1.34;100.00;97885.03;4949363;28;20045;-59
2022/11/13 08:19:05;;;;;;;8.25;6.55;;;2.40;99.90;;;1.32;100.00;97871.16;4955223;28;20082;-58
2022/11/13 08:21:30;;;;;;;8.07;6.43;;;2.30;99.90;;;1.43;100.00;97860.84;4954424;28;20097;-58
2022/11/13 08:23:56;;;;;;;9.77;6.65;;;2.40;99.90;;;1.57;100.00;97871.34;4959045;28;20038;-59
2022/11/13 08:26:22;;;;;;;7.25;5.55;;;2.50;99.90;;;1.69;100.00;97868.81;4950466;28;20121;-58
2022/11/13 08:28:48;;;;;;;8.02;6.55;;;2.60;99.90;;;1.83;100.00;97868.03;4960392;28;20034;-59
2022/11/13 08:31:15;;;;;;;6.93;6.10;;;2.70;99.90;;;1.81;100.00;97870.63;4953599;28;20030;-58
2022/11/13 08:33:42;;;;;;;6.72;5.63;;;2.70;99.90;;;1.90;100.00;97869.78;4955371;28;20035;-58
2022/11/13 08:36:09;;;;;;;7.28;5.80;;;2.80;99.90;;;1.82;100.00;97841.16;4952591;28;20107;-58
2022/11/13 08:38:35;;;;;;;7.30;6.28;;;2.80;99.90;;;2.02;100.00;97854.25;4959208;28;20374;-58
2022/11/13 08:41:04;;;;;;;7.55;6.15;;;2.90;99.90;;;2.07;100.00;97849.06;4961530;28;20045;-58
2022/11/13 08:43:30;;;;;;;11.38;7.10;;;3.00;99.90;;;2.15;100.00;97847.34;4956226;28;20121;-58
2022/11/13 08:45:56;;;;;;;14.05;7.35;;;3.10;99.90;;;2.04;100.00;97836.91;4949875;28;20043;-58
2022/11/13 08:48:23;;;;;;;9.57;6.80;;;3.00;99.90;;;2.07;100.00;97854.28;4955228;28;20033;-58
2022/11/13 08:50:53;;;;;;;8.30;6.70;;;3.10;99.90;;;2.08;100.00;97851.69;4949288;28;20070;-58
2022/11/13 08:53:20;;;;;;;9.25;6.13;;;3.10;99.90;;;2.17;100.00;97847.34;4947357;28;20035;-58
2022/11/13 08:55:46;;;;;;;8.38;6.43;;;3.10;99.90;;;2.24;100.00;97844.81;4948203;28;20023;-58
2022/11/13 08:58:12;;;;;;;16.08;6.55;;;3.20;99.90;;;2.32;100.00;97839.63;4950568;28;20299;-58
2022/11/13 09:00:38;;;;;;;9.55;7.13;;;3.20;99.90;;;2.38;100.00;97843.97;4943164;28;20113;-58
2022/11/13 09:03:03;;;;;;;8.07;6.57;;;3.30;99.90;;;2.52;100.00;97846.59;4946144;28;20497;-58
2022/11/13 09:05:29;;;;;;;8.15;6.53;;;3.40;99.90;;;2.54;100.00;97834.47;4948247;28;20101;-59
2022/11/13 09:07:58;;;;;;;9.60;7.47;;;3.50;99.90;;;2.58;100.00;97841.41;4955418;28;20039;-59
2022/11/13 09:10:24;;;;;;;9.57;7.80;;;3.50;99.90;;;2.61;100.00;97842.28;4954108;28;20053;-58
2022/11/13 09:13:02;;;;;;;8.27;6.47;;;3.50;99.90;;;2.80;100.00;97839.69;4951021;28;20023;-59
2022/11/13 09:15:31;;;;;;;7.53;6.38;;;3.60;99.90;;;2.93;100.00;97836.25;4954439;28;20122;-58
2022/11/13 09:17:59;;;;;;;9.60;7.32;;;3.70;99.90;;;2.96;100.00;97835.34;4955659;28;20116;-58
2022/11/13 09:20:27;;;;;;;8.57;6.40;;;3.80;99.90;;;3.01;100.00;97833.63;4954615;28;20472;-58
2022/11/13 09:23:05;;;;;;;12.52;7.72;;;3.80;99.90;;;2.94;100.00;97845.78;4957139;28;21115;-58
2022/11/13 09:25:33;;;;;;;8.90;6.60;;;3.90;99.90;;;2.86;100.00;97835.34;4956304;28;20054;-58
2022/11/13 09:28:00;;;;;;;7.25;5.82;;;3.80;99.90;;;2.87;100.00;97841.44;4942562;28;20437;-58
2022/11/13 09:30:27;;;;;;;9.52;6.72;;;3.80;99.90;;;2.81;100.00;97844.91;4953118;28;20062;-58
2022/11/13 09:32:56;;;;;;;9.35;7.25;;;3.80;99.90;;;2.81;100.00;97831.03;4982992;23;20208;-41
2022/11/13 09:35:35;;;;;;;10.57;8.27;;;3.80;99.90;;;2.87;100.00;97838.81;4971150;28;20030;-42
2022/11/13 09:38:11;;;;;;;10.68;7.93;;;3.80;99.90;;;2.90;100.00;97830.16;4971176;28;20689;-42
2022/11/13 09:40:56;;;;;;;10.15;7.45;;;3.80;99.90;;;3.03;100.00;97830.16;4971056;28;20699;-42
2022/11/13 09:43:29;;;;;;;11.30;8.32;;;3.90;99.90;;;3.22;100.00;97832.75;4946391;28;20433;-42
2022/11/13 09:46:02;;;;;;;10.05;7.53;;;4.00;99.90;;;3.39;100.00;97828.41;4952375;28;20049;-42
2022/11/13 09:48:37;;;;;;;13.18;9.43;;;4.20;99.90;;;3.46;100.00;97833.59;4951702;28;20034;-42
2022/11/13 09:51:16;;;;;;;14.02;9.25;;;4.30;99.90;;;3.49;100.00;97823.16;4969274;28;20035;-42
2022/11/13 09:53:42;;;;;;;14.55;10.50;;;4.40;99.90;;;3.46;100.00;97826.63;4952476;28;20054;-42
2022/11/13 09:56:33;;;;;;;10.98;8.10;;;4.50;99.90;;;3.66;100.00;97833.53;4947781;28;20631;-42
2022/11/13 09:59:24;;;;;;;14.23;9.80;;;4.50;99.90;;;3.40;100.00;97832.72;4947434;28;20562;-40
2022/11/13 10:02:13;;;;;;;13.60;9.45;;;4.40;99.90;;;3.40;100.00;97834.47;4963068;28;20421;-42
2022/11/13 10:04:55;;;;;;;14.55;9.88;;;4.40;99.90;;;3.23;100.00;97829.25;4946326;28;20188;-41
2022/11/13 10:07:56;;;;;;;13.63;9.73;;;4.30;99.90;;;3.14;100.00;97829.28;4944232;28;20167;-38
2022/11/13 10:10:40;;;;;;;12.32;9.40;;;4.10;99.90;;;3.19;100.00;97824.94;4946288;28;20530;-39
2022/11/13 10:13:13;;;;;;;12.30;9.73;;;4.20;99.90;;;3.18;100.00;97820.59;4936188;28;20078;-38
2022/11/13 10:15:43;;;;;;;13.70;9.95;;;4.10;99.90;;;3.25;100.00;97823.19;4944512;28;20123;-38
2022/11/13 10:18:21;;;;;;;13.38;9.82;;;4.20;99.90;;;3.30;100.00;97825.78;4945872;28;20047;-38
2022/11/13 10:20:50;;;;;;;12.75;10.02;;;4.20;99.90;;;3.37;100.00;97826.66;4947762;28;20030;-38